Chadstone Weather > Observations for 10/10/20

Select Day:



Observations
Time Temp Hum DP Wind Gust Dir Rain >9am Press
C % C kph kph mm hPa
00:00 11.9 76 7.8 3.4 8.6 NW 0.0 1026.1
00:10 11.9 76 7.8 4.6 12.2 WNW 0.0 1026.2
00:20 11.9 77 8.0 6.0 13.3 NW 0.0 1026.2
00:30 11.8 77 7.9 3.7 9.7 WNW 0.0 1026.1
00:40 11.9 78 8.2 4.0 8.6 WNW 0.0 1025.9
00:50 11.9 78 8.2 5.0 9.7 NW 0.0 1026.1
01:00 11.9 78 8.2 5.1 12.2 NW 0.0 1026.0
01:10 12.0 77 8.1 3.7 9.7 NW 0.0 1026.0
01:20 12.0 77 8.1 3.9 11.2 WNW 0.0 1025.9
01:30 12.0 77 8.1 3.2 12.2 WNW 0.0 1025.8
01:40 12.0 77 8.1 5.5 12.2 WNW 0.0 1025.7
01:50 12.0 77 8.1 5.4 11.2 WNW 0.0 1025.8
02:00 12.0 77 8.1 4.7 9.7 WNW 0.0 1025.7
02:10 12.0 77 8.1 4.5 9.7 WNW 0.0 1025.6
02:20 12.1 77 8.2 6.2 12.2 NW 0.0 1025.5
02:30 12.2 77 8.3 4.4 8.6 W 0.0 1025.4
02:40 12.2 77 8.3 5.2 8.6 WNW 0.0 1025.2
02:50 12.2 77 8.3 4.5 12.2 WNW 0.0 1025.1
03:00 12.2 77 8.3 5.5 11.2 WSW 0.0 1025.0
03:10 12.3 77 8.4 3.1 9.7 WNW 0.0 1025.0
03:20 12.3 77 8.4 6.2 11.2 NW 0.0 1025.0
03:30 12.3 77 8.4 6.3 15.8 WNW 0.0 1024.9
03:40 12.3 77 8.4 4.8 11.2 W 0.0 1025.0
03:50 12.3 77 8.4 5.0 12.2 W 0.0 1025.1
04:00 12.3 77 8.4 6.3 14.8 WNW 0.0 1025.2
04:10 12.3 77 8.4 6.3 14.8 WNW 0.0 1025.1
04:20 12.3 77 8.4 4.7 11.2 WNW 0.0 1025.0
04:30 12.3 77 8.4 5.7 11.2 NW 0.0 1024.8
04:40 12.3 77 8.4 3.7 9.7 NW 0.0 1024.8
04:50 12.3 77 8.4 3.7 8.6 NW 0.0 1024.6
05:00 12.3 77 8.4 3.6 8.6 NNW 0.0 1024.6
05:10 12.3 77 8.4 3.6 7.2 NNW 0.0 1024.6
05:20 12.2 77 8.3 4.2 8.6 NNW 0.0 1024.6
05:30 12.2 77 8.3 4.6 9.7 NNW 0.0 1024.5
05:40 12.2 77 8.3 3.8 11.2 NNW 0.0 1024.5
05:50 12.1 78 8.4 3.8 9.7 NNW 0.0 1024.6
06:00 12.1 78 8.4 3.7 7.2 NNW 0.0 1024.5
06:10 12.0 78 8.3 4.2 8.6 NNW 0.0 1024.6
06:20 11.9 80 8.6 4.4 9.7 NNW 0.0 1024.5
06:30 11.9 80 8.6 3.5 8.6 NW 0.0 1024.6
06:40 11.9 81 8.7 4.2 8.6 NNW 0.0 1024.7
06:50 11.8 81 8.6 4.2 8.6 N 0.0 1024.8
07:00 11.8 82 8.8 4.9 9.7 NNW 0.0 1024.9
07:10 11.7 82 8.7 5.1 9.7 NNW 0.0 1025.0
07:20 11.6 82 8.6 4.1 8.6 NW 0.0 1025.1
07:30 11.6 82 8.6 3.5 8.6 NNW 0.0 1025.1
07:40 11.6 82 8.6 3.9 7.2 NW 0.0 1025.2
07:50 11.7 82 8.7 3.1 7.2 NNW 0.0 1025.2
08:00 12.0 82 9.0 4.8 9.7 NW 0.0 1025.2
08:10 12.4 81 9.2 3.9 9.7 WNW 0.0 1025.2
08:20 12.7 81 9.5 4.8 15.8 NW 0.0 1025.2
08:30 13.0 79 9.4 8.3 15.8 NW 0.0 1025.2
08:40 13.3 78 9.5 7.6 13.3 NNW 0.0 1025.2
08:50 13.7 77 9.7 7.3 15.8 NNW 0.0 1025.3
09:00 14.0 74 9.4 9.0 17.3 NW 0.0 1025.4
09:10 14.4 73 9.6 11.1 22.0 NW 0.0 1025.3
09:20 14.6 72 9.6 8.6 18.4 NW 0.0 1025.4
09:30 14.9 71 9.7 8.7 17.3 NNW 0.0 1025.4
09:40 15.2 69 9.6 8.8 19.4 WNW 0.0 1025.4
09:50 15.5 68 9.6 9.6 19.4 WNW 0.0 1025.4
10:00 15.8 68 9.9 9.4 17.3 WNW 0.0 1025.3
10:10 15.7 66 9.4 10.9 24.5 NW 0.0 1025.3
10:20 16.2 66 9.8 8.6 19.4 NW 0.0 1025.2
10:30 16.4 63 9.3 9.9 19.4 NW 0.0 1025.3
10:40 16.4 63 9.3 7.6 14.8 W 0.0 1025.3
10:50 16.2 63 9.2 8.0 20.9 WNW 0.0 1025.4
11:00 16.2 62 8.9 6.5 18.4 WNW 0.0 1025.3
11:10 16.6 62 9.3 7.3 17.3 W 0.0 1025.1
11:20 16.9 61 9.3 7.9 17.3 NW 0.0 1025.1
11:30 17.5 60 9.7 6.2 13.3 WNW 0.0 1024.8
11:40 17.8 58 9.4 4.6 14.8 WNW 0.0 1024.7
11:50 18.2 58 9.8 7.2 17.3 NW 0.0 1024.4
12:00 18.8 57 10.1 8.4 22.0 WNW 0.0 1024.4
12:10 18.6 56 9.7 6.6 15.8 WNW 0.0 1024.2
12:20 18.3 57 9.6 7.5 19.4 WNW 0.0 1024.2
12:30 18.8 57 10.1 8.5 17.3 WNW 0.0 1024.0
12:40 18.8 56 9.8 7.6 17.3 W 0.0 1023.9
12:50 19.6 55 10.3 7.3 18.4 WNW 0.0 1023.8
13:00 19.8 55 10.5 7.4 15.8 W 0.0 1023.8
13:10 19.3 55 10.0 5.4 12.2 WSW 0.0 1023.8
13:20 19.2 56 10.2 4.5 14.8 SW 0.0 1023.7
13:30 19.7 55 10.4 4.9 13.3 WSW 0.0 1023.6
13:40 19.2 55 10.0 3.9 13.3 SW 0.0 1023.7
13:50 19.0 55 9.8 4.4 15.8 SSW 0.0 1023.6
14:00 19.3 56 10.3 4.8 15.8 SW 0.0 1023.4
14:10 19.3 56 10.3 5.4 14.8 SW 0.0 1023.3
14:20 19.4 56 10.4 3.9 13.3 WSW 0.0 1023.3
14:30 19.6 56 10.6 4.8 17.3 SW 0.0 1023.4
14:40 20.1 55 10.8 5.4 17.3 WSW 0.0 1023.3
14:50 20.5 54 10.9 4.9 11.2 NW 0.0 1023.0
15:00 20.3 54 10.7 4.2 14.8 S 0.0 1023.1
15:10 20.1 54 10.5 6.6 18.4 WSW 0.0 1023.1
15:20 20.1 55 10.8 4.0 11.2 SSW 0.0 1022.9
15:30 20.0 55 10.7 4.7 17.3 NW 0.0 1022.7
15:40 20.2 55 10.9 4.4 12.2 WSW 0.0 1022.6
15:50 20.3 55 11.0 3.6 15.8 SSW 0.0 1022.5
16:00 20.0 54 10.4 5.1 18.4 SSW 0.0 1022.6
16:10 20.0 54 10.4 4.5 13.3 W 0.0 1022.4
16:20 19.6 57 10.9 3.6 19.4 E 0.0 1022.4
16:30 19.6 59 11.4 4.2 11.2 N 0.0 1022.3
16:40 19.2 59 11.0 4.8 13.3 NW 0.0 1022.6
16:50 18.5 63 11.3 3.4 12.2 SSW 0.0 1022.6
17:00 18.3 65 11.6 5.2 19.4 WSW 0.0 1022.4
17:10 17.8 63 10.7 8.6 19.4 NNW 0.0 1022.8
17:20 17.7 63 10.6 6.2 18.4 S 0.0 1022.9
17:30 17.4 63 10.3 5.7 15.8 SSW 0.0 1023.0
17:40 17.0 63 9.9 3.1 12.2 S 0.0 1023.3
17:50 16.7 64 9.9 4.1 13.3 SW 0.0 1023.4
18:00 16.5 64 9.7 3.9 11.2 SSW 0.0 1023.6
18:10 16.3 64 9.5 3.6 15.8 W 0.0 1023.8
18:20 16.2 64 9.4 6.4 18.4 SSW 0.0 1023.9
18:30 15.9 66 9.6 3.2 14.8 SSW 0.0 1024.1
18:40 15.8 66 9.5 5.1 15.8 S 0.0 1024.4
18:50 15.7 68 9.8 4.3 13.3 WSW 0.0 1024.5
19:00 15.6 69 9.9 4.5 15.8 S 0.0 1024.5
19:10 15.4 69 9.7 7.1 20.9 W 0.0 1024.8
19:20 15.3 69 9.7 5.1 13.3 SSW 0.0 1025.0
19:30 15.2 69 9.6 3.1 14.8 SSW 0.0 1025.2
19:40 15.1 69 9.5 4.2 14.8 SSW 0.0 1025.3
19:50 15.1 70 9.7 4.7 11.2 SSW 0.0 1025.6
20:00 15.1 70 9.7 5.8 15.8 W 0.0 1025.6
20:10 14.9 70 9.5 8.5 19.4 SSW 0.0 1025.8
20:20 14.8 70 9.4 5.2 15.8 SSW 0.0 1025.7
20:30 14.8 71 9.6 5.7 13.3 S 0.0 1025.8
20:40 14.8 71 9.6 3.5 15.8 SW 0.0 1026.0
20:50 14.7 73 9.9 5.2 14.8 WSW 0.0 1026.0
21:00 14.6 74 10.0 5.8 14.8 S 0.0 1026.1
21:10 14.5 74 9.9 5.2 17.3 SSW 0.0 1026.5
21:20 14.6 74 10.0 3.8 12.2 SSW 0.0 1026.5
21:30 14.4 74 9.8 3.9 12.2 S 0.0 1026.8
21:40 14.4 75 10.0 2.4 14.8 SSW 0.0 1026.9
21:50 14.3 74 9.7 4.5 15.8 S 0.0 1027.0
22:00 14.3 74 9.7 3.6 13.3 SSW 0.0 1027.2
22:10 14.2 74 9.6 3.4 13.3 SSW 0.0 1027.3
22:20 14.2 74 9.6 2.6 8.6 S 0.0 1027.3
22:30 14.1 74 9.5 3.4 9.7 SSW 0.0 1027.3
22:40 14.1 74 9.5 2.4 12.2 SSE 0.0 1027.3
22:50 14.1 75 9.7 3.1 12.2 S 0.0 1027.3
23:00 14.0 75 9.6 2.5 12.2 SE 0.0 1027.3
23:10 14.0 75 9.6 2.2 11.2 SSW 0.0 1027.4
23:20 14.0 76 9.8 1.0 5.0 SW 0.0 1027.5
23:30 14.0 76 9.8 0.9 6.1 S 0.0 1027.4
23:40 13.9 78 10.1 1.9 9.7 SW 0.0 1027.4
23:50 13.8 78 10.0 1.9 8.6 WNW 0.0 1027.4